Time;durP1;ratioP1;P1;durP2;ratioP2;P2;SDS_P1;SDS_P2;PMS_P1;PMS_P2;Temp;Humidity;BMP_temperature;BMP_pressure;BME280_temperature;BME280_humidity;BME280_pressure;Samples;Min_cycle;Max_cycle;Signal;HPM_P1;HPM_P2
2022/01/05 00:02:09;;;;;;;0.55;0.30;;;;;;;8.44;68.63;95586.56;6026112;23;20165;-82
2022/01/05 00:04:35;;;;;;;1.38;0.20;;;;;;;8.18;70.02;95583.31;5992950;23;20397;-83
2022/01/05 00:07:02;;;;;;;1.48;0.30;;;;;;;8.37;69.73;95567.13;6028387;23;20383;-83
2022/01/05 00:09:28;;;;;;;0.98;0.30;;;;;;;8.46;69.60;95564.78;5992578;23;20147;-82
2022/01/05 00:11:54;;;;;;;0.38;0.30;;;;;;;8.39;69.68;95562.44;6025410;23;20166;-83
2022/01/05 00:14:19;;;;;;;0.50;0.30;;;;;;;8.48;69.03;95560.84;6026895;23;20254;-83
2022/01/05 00:16:45;;;;;;;0.68;0.40;;;;;;;8.37;69.45;95557.53;6025870;23;20147;-82
2022/01/05 00:19:10;;;;;;;0.60;0.22;;;;;;;8.43;69.25;95553.91;5992219;23;20159;-82
2022/01/05 00:21:36;;;;;;;0.50;0.30;;;;;;;8.41;69.46;95547.38;5991679;23;20225;-82
2022/01/05 00:24:01;;;;;;;0.30;0.25;;;;;;;8.42;69.78;95551.53;6025819;23;20264;-82
2022/01/05 00:26:27;;;;;;;1.00;0.32;;;;;;;8.39;69.06;95545.06;6028128;23;20139;-81
2022/01/05 00:28:54;;;;;;;1.08;0.40;;;;;;;8.38;69.31;95540.94;5991771;23;20188;-83
2022/01/05 00:31:19;;;;;;;0.50;0.50;;;;;;;8.43;69.32;95538.34;5991534;23;20245;-82
2022/01/05 00:33:44;;;;;;;1.58;0.50;;;;;;;8.44;69.79;95524.31;6025861;23;20226;-82
2022/01/05 00:36:10;;;;;;;2.05;0.68;;;;;;;8.45;69.68;95525.09;5992373;23;20147;-82
2022/01/05 00:38:35;;;;;;;1.60;0.82;;;;;;;8.37;70.20;95525.63;6002076;23;20253;-82
2022/01/05 00:41:01;;;;;;;1.80;0.70;;;;;;;8.41;70.09;95545.59;6024759;23;20660;-82
2022/01/05 00:43:27;;;;;;;0.60;0.40;;;;;;;8.51;69.48;95536.19;5992152;23;20222;-82
2022/01/05 00:45:53;;;;;;;1.38;0.55;;;;;;;8.54;70.03;95535.66;6025415;23;20218;-83
2022/01/05 00:48:19;;;;;;;2.83;1.00;;;;;;;8.55;69.33;95525.03;6026214;23;20590;-82
2022/01/05 00:50:44;;;;;;;1.23;0.70;;;;;;;8.59;69.52;95530.44;6000519;23;20386;-82
2022/01/05 00:53:09;;;;;;;1.90;0.60;;;;;;;8.57;69.82;95535.13;6024107;23;20200;-83
2022/01/05 00:55:35;;;;;;;1.88;0.70;;;;;;;8.55;69.85;95527.63;6025700;23;20261;-82
2022/01/05 00:58:00;;;;;;;2.58;0.60;;;;;;;8.61;69.24;95534.28;6027533;23;20213;-82
2022/01/05 01:00:25;;;;;;;2.03;0.60;;;;;;;8.55;69.65;95540.59;6024490;23;20174;-82
2022/01/05 01:02:51;;;;;;;1.15;0.55;;;;;;;8.55;70.08;95535.41;6025274;23;20495;-83
2022/01/05 01:05:17;;;;;;;2.00;0.60;;;;;;;8.50;69.97;95526.84;6027452;23;20204;-83
2022/01/05 01:07:44;;;;;;;1.40;0.70;;;;;;;8.60;69.44;95542.34;6027826;23;20263;-82
2022/01/05 01:10:10;;;;;;;4.32;1.10;;;;;;;8.62;69.52;95532.50;6003019;23;20619;-82
2022/01/05 01:12:35;;;;;;;2.88;0.80;;;;;;;8.49;70.06;95540.88;6004177;23;20237;-85
2022/01/05 01:15:06;;;;;;;1.85;0.70;;;;;;;8.39;69.87;95541.69;6027522;23;20341;-83
2022/01/05 01:17:31;;;;;;;4.85;0.98;;;;;;;8.56;70.07;95551.72;5993610;23;20178;-82
2022/01/05 01:19:57;;;;;;;2.20;0.82;;;;;;;8.60;69.74;95553.50;6027240;23;20280;-83
2022/01/05 01:22:23;;;;;;;1.35;0.70;;;;;;;8.43;69.74;95553.91;6028367;23;20139;-83
2022/01/05 01:24:48;;;;;;;1.42;0.93;;;;;;;8.40;70.29;95549.22;6027873;23;20170;-82
2022/01/05 01:27:14;;;;;;;2.92;1.13;;;;;;;8.15;71.09;95546.78;5994740;23;20676;-84
2022/01/05 01:29:39;;;;;;;2.80;1.17;;;;;;;8.42;70.37;95556.72;6027062;23;20234;-84
2022/01/05 01:32:05;;;;;;;1.75;0.95;;;;;;;8.40;70.16;95551.03;6051805;23;20233;-83
2022/01/05 01:34:30;;;;;;;1.02;0.80;;;;;;;8.51;69.85;95560.31;6018276;23;20151;-84
2022/01/05 01:36:56;;;;;;;1.80;0.77;;;;;;;8.46;70.36;95567.38;5993873;23;20617;-84
2022/01/05 01:39:21;;;;;;;1.13;0.65;;;;;;;8.50;70.25;95565.75;6028042;23;20166;-82
2022/01/05 01:41:47;;;;;;;3.25;1.52;;;;;;;8.47;70.19;95555.97;6027169;23;20178;-83
2022/01/05 01:44:12;;;;;;;3.38;1.27;;;;;;;8.30;70.75;95570.03;5993861;23;20139;-84
2022/01/05 01:46:37;;;;;;;2.63;1.10;;;;;;;8.33;70.70;95564.31;5970579;23;20377;-84
2022/01/05 01:49:03;;;;;;;4.50;1.30;;;;;;;8.53;70.10;95573.78;6027145;23;20167;-82
2022/01/05 01:51:28;;;;;;;1.20;1.00;;;;;;;8.46;70.18;95578.50;5992736;23;20155;-82
2022/01/05 01:53:54;;;;;;;4.13;1.35;;;;;;;8.51;70.23;95580.28;6023117;23;20170;-82
2022/01/05 01:56:20;;;;;;;3.10;1.60;;;;;;;8.26;70.91;95587.19;5994107;23;20194;-84
2022/01/05 01:58:48;;;;;;;1.80;1.00;;;;;;;8.27;70.93;95580.94;5991045;23;20225;-83
2022/01/05 02:01:14;;;;;;;1.92;1.10;;;;;;;8.25;71.18;95588.97;6026360;23;20685;-83
2022/01/05 02:03:40;;;;;;;2.67;1.40;;;;;;;8.11;71.33;95587.25;6001121;23;20135;-85
2022/01/05 02:06:05;;;;;;;2.00;1.30;;;;;;;8.25;70.85;95588.22;6028240;23;20232;-82
2022/01/05 02:08:30;;;;;;;2.13;1.17;;;;;;;8.57;70.42;95592.19;5993179;23;20162;-82
2022/01/05 02:10:56;;;;;;;2.58;1.38;;;;;;;8.38;70.52;95592.81;5992286;23;20375;-83
2022/01/05 02:13:22;;;;;;;2.50;1.30;;;;;;;8.51;70.42;95601.03;6027876;23;20224;-85
2022/01/05 02:15:47;;;;;;;2.55;1.30;;;;;;;8.31;71.46;95592.34;6027252;23;20278;-84
2022/01/05 02:21:06;;;;;;;2.65;1.65;;;;;;;8.35;70.63;95587.38;6026643;23;20215;-81
2022/01/05 02:23:34;;;;;;;2.20;1.40;;;;;;;8.41;70.74;95592.28;5993661;23;20224;-83
2022/01/05 02:25:59;;;;;;;2.63;1.70;;;;;;;8.44;70.72;95591.75;5994304;23;20171;-86
2022/01/05 02:28:25;;;;;;;2.08;1.48;;;;;;;8.59;70.33;95592.69;5993205;23;20181;-82
2022/01/05 02:30:52;;;;;;;3.85;1.30;;;;;;;8.59;70.57;95583.09;6025482;23;20550;-83
2022/01/05 02:33:18;;;;;;;1.63;1.23;;;;;;;8.49;70.66;95593.53;6003501;23;20590;-86
2022/01/05 02:35:44;;;;;;;3.17;1.35;;;;;;;8.42;70.50;95588.66;5993447;23;20221;-82
2022/01/05 02:38:09;;;;;;;1.45;1.05;;;;;;;8.52;70.45;95605.97;6027241;23;20581;-82
2022/01/05 02:40:35;;;;;;;2.97;1.67;;;;;;;8.56;70.09;95609.56;6025901;23;20265;-84
2022/01/05 02:43:00;;;;;;;2.83;1.45;;;;;;;8.50;70.09;95626.22;6026275;23;20392;-85
2022/01/05 02:45:26;;;;;;;1.17;0.90;;;;;;;8.23;70.80;95642.16;6004140;23;20300;-85
2022/01/05 02:47:51;;;;;;;1.88;0.80;;;;;;;7.93;71.38;95654.19;6004645;23;20233;-83
2022/01/05 02:50:17;;;;;;;1.38;0.80;;;;;;;8.06;71.69;95679.53;5993424;23;20128;-83
2022/01/05 02:52:42;;;;;;;0.70;0.60;;;;;;;7.76;72.38;95724.47;6028686;23;20174;-83
2022/01/05 02:55:09;;;;;;;0.90;0.22;;;;;;;7.09;68.58;95744.38;6019491;23;20296;-85
2022/01/05 02:57:35;;;;;;;1.00;0.15;;;;;;;6.67;68.36;95735.78;6029637;23;20202;-82
2022/01/05 03:00:01;;;;;;;0.20;0.20;;;;;;;6.29;69.18;95742.06;6029072;23;20252;-84
2022/01/05 03:02:26;;;;;;;0.35;0.20;;;;;;;6.13;69.73;95746.41;6029007;23;20544;-82
2022/01/05 03:04:51;;;;;;;0.88;0.20;;;;;;;6.10;69.64;95745.13;5996216;23;20147;-83
2022/01/05 03:07:17;;;;;;;0.38;0.20;;;;;;;6.46;68.42;95749.66;5995413;23;20181;-82
2022/01/05 03:09:43;;;;;;;0.10;0.10;;;;;;;6.32;68.08;95757.88;6031889;23;20068;-83
2022/01/05 03:12:09;;;;;;;0.28;0.13;;;;;;;6.41;68.14;95765.13;6028240;23;20155;-81
2022/01/05 03:14:34;;;;;;;0.93;0.10;;;;;;;6.22;69.06;95763.00;6029927;23;20656;-83
2022/01/05 03:17:01;;;;;;;1.08;0.10;;;;;;;6.32;68.85;95773.41;5993317;23;20148;-82
2022/01/05 03:19:27;;;;;;;0.70;0.30;;;;;;;6.35;68.17;95787.63;5990888;23;20181;-81
2022/01/05 03:21:52;;;;;;;0.15;0.10;;;;;;;6.42;67.80;95788.16;6049960;23;20186;-81
2022/01/05 03:24:18;;;;;;;0.20;0.10;;;;;;;6.28;68.00;95781.91;5993659;23;20178;-82
2022/01/05 03:26:43;;;;;;;0.40;0.10;;;;;;;6.31;68.08;95777.00;6026856;23;20253;-81
2022/01/05 03:29:08;;;;;;;0.20;0.20;;;;;;;6.47;67.84;95793.34;5992190;23;20181;-82
2022/01/05 03:31:34;;;;;;;0.73;0.50;;;;;;;6.36;67.78;95795.13;6029016;23;20689;-81
2022/01/05 03:33:59;;;;;;;0.10;0.10;;;;;;;6.47;67.66;95808.09;5992312;23;20212;-83
2022/01/05 03:36:24;;;;;;;0.20;0.10;;;;;;;6.44;68.21;95811.19;6024604;23;20250;-81
2022/01/05 03:38:50;;;;;;;0.20;0.10;;;;;;;6.34;68.62;95823.03;5993001;23;20170;-81
2022/01/05 03:41:16;;;;;;;0.10;0.10;;;;;;;6.39;68.87;95824.84;6026936;23;20660;-82
2022/01/05 03:43:41;;;;;;;0.22;0.10;;;;;;;6.24;68.23;95828.16;6027823;23;20740;-81
2022/01/05 03:46:06;;;;;;;0.15;0.15;;;;;;;6.31;67.88;95833.88;5970105;23;20201;-82
2022/01/05 03:48:32;;;;;;;1.38;0.10;;;;;;;6.43;67.36;95849.19;6027493;23;20199;-81
2022/01/05 03:50:57;;;;;;;0.20;0.10;;;;;;;6.43;67.02;95856.94;5993156;23;20647;-81
2022/01/05 03:53:23;;;;;;;0.10;0.10;;;;;;;6.40;66.53;95865.19;6024856;23;20276;-82
2022/01/05 03:55:48;;;;;;;0.10;0.10;;;;;;;6.35;67.75;95865.16;5993255;23;20196;-82
2022/01/05 03:58:14;;;;;;;0.30;0.10;;;;;;;6.23;67.05;95869.75;5978981;23;20273;-82
2022/01/05 04:00:46;;;;;;;1.35;0.17;;;;;;;6.03;67.06;95871.13;6002984;23;20344;-82
2022/01/05 04:03:11;;;;;;;0.10;0.10;;;;;;;6.24;66.58;95889.38;5969857;23;20183;-81
2022/01/05 04:05:37;;;;;;;0.73;0.10;;;;;;;6.28;66.75;95895.63;5969658;23;20151;-82
2022/01/05 04:08:03;;;;;;;0.10;0.10;;;;;;;6.30;66.34;95883.22;5969736;23;20207;-83
2022/01/05 04:10:28;;;;;;;0.40;0.40;;;;;;;6.32;66.53;95909.59;5969792;23;20614;-82
2022/01/05 04:12:53;;;;;;;0.55;0.20;;;;;;;6.34;66.88;95916.09;5978801;23;20283;-85
2022/01/05 04:15:19;;;;;;;0.10;0.10;;;;;;;6.16;66.71;95922.41;6003489;23;20263;-83
2022/01/05 04:17:45;;;;;;;0.10;0.00;;;;;;;6.23;67.78;95934.34;6002770;23;20243;-82
2022/01/05 04:20:12;;;;;;;0.20;0.20;;;;;;;6.26;67.25;95944.97;6001988;23;20175;-81
2022/01/05 04:22:37;;;;;;;0.20;0.20;;;;;;;6.19;67.77;95940.00;6002900;23;20256;-81
2022/01/05 04:25:04;;;;;;;0.88;0.20;;;;;;;6.23;67.74;95945.47;6002115;23;20240;-81
2022/01/05 04:27:29;;;;;;;1.65;0.40;;;;;;;6.26;67.49;95952.72;5969388;23;20283;-81
2022/01/05 04:29:55;;;;;;;0.15;0.10;;;;;;;6.21;67.92;95968.19;6003236;23;20979;-81
2022/01/05 04:32:20;;;;;;;0.20;0.10;;;;;;;6.18;67.91;95968.69;6002997;23;20295;-79
2022/01/05 04:34:45;;;;;;;0.47;0.15;;;;;;;6.20;68.50;95966.63;6003015;23;20187;-84
2022/01/05 04:37:11;;;;;;;0.30;0.15;;;;;;;6.08;68.10;95968.59;5945472;23;20259;-83
2022/01/05 04:39:37;;;;;;;0.47;0.20;;;;;;;6.10;67.71;95977.69;5969152;23;20572;-81
2022/01/05 04:42:03;;;;;;;0.20;0.20;;;;;;;6.05;68.36;95975.03;5970134;23;20148;-81
2022/01/05 04:44:28;;;;;;;0.73;0.55;;;;;;;6.07;68.38;95977.38;5993503;23;20183;-82
2022/01/05 04:46:54;;;;;;;1.75;0.28;;;;;;;5.91;67.92;95987.53;6003092;23;20567;-84
2022/01/05 04:49:19;;;;;;;0.20;0.10;;;;;;;5.49;68.38;95982.97;5947117;23;20307;-85
2022/01/05 04:51:45;;;;;;;0.43;0.20;;;;;;;5.59;67.92;95988.25;5946004;23;20598;-83
2022/01/05 04:54:10;;;;;;;0.77;0.47;;;;;;;5.48;69.03;95990.94;6004537;23;20298;-84
2022/01/05 04:56:35;;;;;;;0.85;0.30;;;;;;;5.37;68.07;95990.81;6027445;23;20333;-83
2022/01/05 04:59:01;;;;;;;1.67;0.82;;;;;;;5.26;68.47;96007.22;5994074;23;20683;-83
2022/01/05 05:01:26;;;;;;;1.02;0.30;;;;;;;5.28;68.30;96006.94;5994022;23;20172;-82
2022/01/05 05:03:52;;;;;;;1.13;0.63;;;;;;;5.35;68.44;96013.50;6017732;23;20312;-82
2022/01/05 05:06:17;;;;;;;1.83;0.75;;;;;;;5.17;67.90;96022.31;6027536;23;20242;-82
2022/01/05 05:08:43;;;;;;;0.45;0.30;;;;;;;4.94;68.09;96025.09;6028252;23;20155;-82
2022/01/05 05:11:08;;;;;;;1.10;0.50;;;;;;;4.90;67.88;96031.72;6051056;23;20270;-85
2022/01/05 05:13:33;;;;;;;2.03;0.70;;;;;;;4.92;68.29;96033.06;5993862;23;20244;-83
2022/01/05 05:15:59;;;;;;;1.45;0.45;;;;;;;4.96;68.89;96035.97;5993540;23;20262;-83
2022/01/05 05:18:24;;;;;;;2.40;0.70;;;;;;;4.98;67.92;96039.06;6026748;23;20331;-81
2022/01/05 05:20:49;;;;;;;3.03;0.70;;;;;;;5.10;68.45;96046.72;6027010;23;20336;-83
2022/01/05 05:23:16;;;;;;;1.77;0.65;;;;;;;4.95;68.08;96048.09;6027002;23;20186;-81
2022/01/05 05:25:42;;;;;;;1.30;0.80;;;;;;;4.98;68.67;96055.31;6027027;23;20186;-82
2022/01/05 05:28:08;;;;;;;2.53;0.75;;;;;;;5.05;67.97;96061.13;5993256;23;20511;-83
2022/01/05 05:30:34;;;;;;;2.58;0.80;;;;;;;5.02;68.01;96061.59;6029010;23;20203;-82
2022/01/05 05:33:00;;;;;;;0.82;0.68;;;;;;;5.05;68.02;96068.06;5993062;23;20201;-81
2022/01/05 05:35:27;;;;;;;1.63;0.85;;;;;;;5.02;68.02;96084.00;6027578;23;20233;-83
2022/01/05 05:37:53;;;;;;;2.05;0.80;;;;;;;5.03;68.14;96088.16;6026788;23;20147;-86
2022/01/05 05:40:18;;;;;;;2.05;0.80;;;;;;;4.86;68.73;96083.00;6017319;23;20637;-82
2022/01/05 05:42:43;;;;;;;1.90;0.90;;;;;;;4.82;68.69;96094.81;5993279;23;20355;-83
2022/01/05 05:45:09;;;;;;;1.98;1.20;;;;;;;4.81;67.98;96086.28;6026702;23;20194;-82
2022/01/05 05:47:34;;;;;;;2.42;0.93;;;;;;;4.85;66.75;96082.22;6026910;23;20233;-81
2022/01/05 05:50:00;;;;;;;2.17;0.90;;;;;;;4.79;67.83;96097.84;6050746;23;20410;-81
2022/01/05 05:52:25;;;;;;;5.63;1.52;;;;;;;4.82;67.18;96102.53;6030589;23;20238;-82
2022/01/05 05:54:52;;;;;;;5.13;1.58;;;;;;;4.74;67.91;96100.34;6001346;23;20124;-81
2022/01/05 05:57:17;;;;;;;2.60;1.35;;;;;;;4.52;66.15;96098.44;6034359;23;20567;-83
2022/01/05 05:59:43;;;;;;;3.00;1.17;;;;;;;4.67;66.13;96110.81;5998000;23;20222;-81
2022/01/05 06:02:08;;;;;;;8.23;1.40;;;;;;;4.66;66.44;96110.03;6032353;23;20190;-81
2022/01/05 06:04:33;;;;;;;3.38;1.30;;;;;;;4.49;67.18;96102.28;6009120;23;20642;-81
2022/01/05 06:06:59;;;;;;;4.07;1.58;;;;;;;4.65;66.78;96120.56;6058472;23;20268;-81
2022/01/05 06:09:24;;;;;;;1.85;1.05;;;;;;;4.66;66.06;96124.69;6007822;23;20174;-81
2022/01/05 06:11:49;;;;;;;5.03;1.58;;;;;;;4.67;67.40;96134.00;6031882;23;20143;-81
2022/01/05 06:14:15;;;;;;;3.00;1.60;;;;;;;4.80;67.57;96131.16;5998717;23;20182;-81
2022/01/05 06:16:43;;;;;;;4.75;1.70;;;;;;;4.74;67.91;96146.75;6058256;23;20171;-81
2022/01/05 06:19:08;;;;;;;4.97;1.58;;;;;;;4.67;66.81;96146.91;6058369;23;20583;-81
2022/01/05 06:21:34;;;;;;;3.38;1.13;;;;;;;4.66;66.64;96151.28;6031944;23;20274;-81
2022/01/05 06:23:59;;;;;;;3.72;1.38;;;;;;;4.64;66.22;96163.63;6007164;23;20241;-81
2022/01/05 06:26:25;;;;;;;4.15;1.05;;;;;;;4.47;65.18;96160.22;6032822;23;20679;-82
2022/01/05 06:28:50;;;;;;;3.90;1.23;;;;;;;4.48;65.66;96183.19;6031989;23;20259;-83
2022/01/05 06:31:16;;;;;;;3.72;0.90;;;;;;;4.49;65.60;96186.56;6006748;23;20206;-81
2022/01/05 06:33:41;;;;;;;5.32;1.08;;;;;;;4.34;65.07;96194.78;6008309;23;20329;-83
2022/01/05 06:36:07;;;;;;;3.40;1.33;;;;;;;4.22;65.27;96197.38;6033230;23;20152;-83
2022/01/05 06:38:32;;;;;;;6.97;1.50;;;;;;;4.21;65.69;96190.66;6009325;23;20185;-84
2022/01/05 06:40:58;;;;;;;5.07;0.95;;;;;;;4.21;63.33;96200.94;6033265;23;20169;-81
2022/01/05 06:43:23;;;;;;;3.60;1.10;;;;;;;4.35;66.15;96198.91;5976312;23;20269;-82
2022/01/05 06:45:48;;;;;;;5.40;1.13;;;;;;;4.28;66.29;96191.31;6010089;23;20693;-81
2022/01/05 06:48:14;;;;;;;11.18;1.52;;;;;;;4.36;64.76;96199.69;6009259;23;20586;-82
2022/01/05 06:50:39;;;;;;;3.70;0.93;;;;;;;4.37;64.67;96201.25;6059291;23;20311;-82
2022/01/05 06:53:04;;;;;;;2.85;1.30;;;;;;;4.37;65.30;96211.56;6008678;23;20425;-84
2022/01/05 06:55:30;;;;;;;4.28;1.52;;;;;;;4.10;64.58;96199.19;6030834;23;20198;-82
2022/01/05 06:57:55;;;;;;;7.05;1.40;;;;;;;3.72;63.32;96197.91;6034037;23;20222;-85
2022/01/05 07:00:22;;;;;;;4.72;0.98;;;;;;;3.87;62.48;96205.94;6032641;23;20332;-83
2022/01/05 07:02:48;;;;;;;3.80;0.80;;;;;;;4.06;63.91;96213.53;6023299;23;20220;-82
2022/01/05 07:05:14;;;;;;;3.63;1.17;;;;;;;4.08;63.81;96212.28;6033680;23;20189;-83
2022/01/05 07:07:40;;;;;;;3.60;1.30;;;;;;;4.22;65.48;96204.31;6000148;23;20225;-83
2022/01/05 07:10:07;;;;;;;7.80;1.38;;;;;;;4.24;65.22;96210.81;6045321;23;20253;-83
2022/01/05 07:12:33;;;;;;;6.68;1.23;;;;;;;4.24;63.37;96215.97;6000079;23;20402;-83
2022/01/05 07:14:59;;;;;;;3.65;1.10;;;;;;;4.17;64.96;96220.47;6033634;23;20183;-84
2022/01/05 07:17:24;;;;;;;6.25;2.15;;;;;;;4.09;65.04;96223.38;6034605;23;20219;-85
2022/01/05 07:19:50;;;;;;;5.85;1.58;;;;;;;4.06;64.37;96239.28;6000112;23;20171;-88
2022/01/05 07:22:18;;;;;;;8.40;1.70;;;;;;;3.99;64.46;96246.34;5976920;23;20241;-85
2022/01/05 07:24:43;;;;;;;5.50;2.05;;;;;;;3.91;64.26;96250.81;6058795;23;20342;-86
2022/01/05 07:27:08;;;;;;;5.05;1.63;;;;;;;3.92;64.90;96249.84;6001572;23;20225;-84
2022/01/05 07:29:34;;;;;;;7.63;1.35;;;;;;;3.96;64.33;96260.47;6034059;23;20170;-86
2022/01/05 07:31:59;;;;;;;4.18;1.17;;;;;;;3.80;64.54;96261.91;6035468;23;20170;-85
2022/01/05 07:34:25;;;;;;;9.13;1.63;;;;;;;3.78;64.01;96258.78;6000840;23;20226;-85
2022/01/05 07:36:50;;;;;;;4.78;1.30;;;;;;;3.67;64.77;96270.63;6026242;23;20190;-86
2022/01/05 07:39:15;;;;;;;6.07;1.45;;;;;;;3.84;64.94;96275.09;6002381;23;20638;-84
2022/01/05 07:41:41;;;;;;;3.50;1.30;;;;;;;3.93;65.50;96284.88;6002221;23;20597;-85
2022/01/05 07:44:07;;;;;;;4.38;1.17;;;;;;;3.95;65.27;96292.38;6026958;23;20243;-85
2022/01/05 07:46:33;;;;;;;6.97;1.23;;;;;;;4.03;65.80;96297.19;6035546;23;20211;-85
2022/01/05 07:48:59;;;;;;;2.17;0.95;;;;;;;3.99;64.87;96290.91;6001049;23;20594;-85
2022/01/05 07:51:24;;;;;;;5.25;2.15;;;;;;;3.89;65.14;96296.63;6037371;23;20167;-84
2022/01/05 07:53:50;;;;;;;4.97;1.50;;;;;;;3.92;66.45;96292.81;5994267;23;20191;-85
2022/01/05 07:56:16;;;;;;;3.08;1.33;;;;;;;4.05;65.20;96302.91;5972578;23;20152;-85
2022/01/05 07:58:41;;;;;;;3.70;1.60;;;;;;;3.94;65.25;96307.03;5973917;23;20175;-84
2022/01/05 08:01:07;;;;;;;5.00;1.30;;;;;;;4.01;66.12;96308.72;5948784;23;20144;-85
2022/01/05 08:03:37;;;;;;;5.47;1.13;;;;;;;4.03;66.36;96306.72;5967330;23;20148;-85
2022/01/05 08:06:04;;;;;;;4.72;1.70;;;;;;;4.04;64.94;96310.84;5973436;23;20274;-85
2022/01/05 08:08:29;;;;;;;5.80;1.42;;;;;;;3.93;64.74;96318.34;6006091;23;20221;-85
2022/01/05 08:10:55;;;;;;;6.18;1.33;;;;;;;3.92;65.08;96326.28;6006032;23;20369;-85
2022/01/05 08:13:24;;;;;;;7.28;1.52;;;;;;;3.94;65.00;96325.06;6006431;23;20435;-85
2022/01/05 08:15:50;;;;;;;3.35;1.02;;;;;;;3.81;64.92;96332.22;5971808;23;20193;-85
2022/01/05 08:18:16;;;;;;;4.63;1.98;;;;;;;3.97;64.66;96328.22;5972866;23;20276;-85
2022/01/05 08:20:41;;;;;;;5.47;1.85;;;;;;;3.94;64.43;96340.53;5949377;23;20282;-85
2022/01/05 08:23:07;;;;;;;8.70;2.35;;;;;;;4.07;65.48;96336.94;5982448;23;20163;-86
2022/01/05 08:25:32;;;;;;;7.05;2.30;;;;;;;3.98;65.85;96345.25;5973064;23;20223;-85
2022/01/05 08:27:57;;;;;;;3.67;1.35;;;;;;;3.91;64.47;96348.69;5982253;23;20187;-85
2022/01/05 08:30:24;;;;;;;5.97;1.58;;;;;;;4.00;65.07;96349.16;6007455;23;20341;-85
2022/01/05 08:32:52;;;;;;;5.43;1.30;;;;;;;3.90;64.76;96354.84;6007850;23;20163;-85
2022/01/05 08:35:20;;;;;;;12.32;1.70;;;;;;;3.91;64.62;96356.41;5998344;23;20084;-84
2022/01/05 08:37:47;;;;;;;4.68;1.30;;;;;;;3.84;64.58;96358.31;5975412;23;20187;-85
2022/01/05 08:40:14;;;;;;;8.52;2.05;;;;;;;4.00;64.29;96369.75;6007072;23;20269;-85
2022/01/05 08:42:40;;;;;;;7.20;1.40;;;;;;;3.86;64.17;96378.69;5982921;23;20298;-86
2022/01/05 08:45:07;;;;;;;6.05;1.40;;;;;;;4.02;63.93;96390.91;5973615;23;20188;-84
2022/01/05 08:47:32;;;;;;;12.43;2.03;;;;;;;4.06;62.75;96393.81;5951801;23;20248;-84
2022/01/05 08:49:58;;;;;;;7.43;1.85;;;;;;;4.10;63.13;96402.69;5951363;23;20183;-84
2022/01/05 08:52:24;;;;;;;8.55;1.75;;;;;;;4.16;65.49;96394.06;5951280;23;20292;-85
2022/01/05 08:54:50;;;;;;;9.25;1.65;;;;;;;4.12;64.85;96388.56;5988523;23;20190;-85
2022/01/05 08:57:16;;;;;;;5.65;1.52;;;;;;;3.93;65.99;96389.69;5992111;23;20261;-83
2022/01/05 08:59:43;;;;;;;4.55;2.00;;;;;;;4.15;66.11;96397.66;5997368;23;20185;-85
2022/01/05 09:02:08;;;;;;;6.80;1.63;;;;;;;4.29;65.24;96401.59;5997462;23;20371;-84
2022/01/05 09:04:34;;;;;;;3.90;1.80;;;;;;;4.38;66.11;96416.72;6000540;23;20373;-85
2022/01/05 09:07:00;;;;;;;7.63;2.00;;;;;;;4.33;64.91;96414.81;6031144;23;20189;-85
2022/01/05 09:09:26;;;;;;;6.07;2.05;;;;;;;4.21;65.71;96425.09;6029969;23;20147;-85
2022/01/05 09:11:51;;;;;;;7.70;1.60;;;;;;;4.10;65.41;96429.25;5996886;23;20551;-84
2022/01/05 09:14:20;;;;;;;6.45;1.67;;;;;;;4.32;64.60;96434.66;6006595;23;20170;-84
2022/01/05 09:16:45;;;;;;;4.68;1.48;;;;;;;4.44;65.20;96439.03;6031485;23;20238;-85
2022/01/05 09:19:11;;;;;;;11.57;2.58;;;;;;;4.38;65.54;96437.34;5996129;23;20190;-84
2022/01/05 09:21:36;;;;;;;5.03;1.75;;;;;;;4.48;66.90;96437.59;5996821;23;20272;-82
2022/01/05 09:24:02;;;;;;;5.72;2.20;;;;;;;4.46;65.80;96432.66;6029770;23;20174;-84
2022/01/05 09:26:28;;;;;;;4.50;1.67;;;;;;;4.61;65.82;96439.16;5997646;23;20179;-84
2022/01/05 09:28:53;;;;;;;7.13;1.92;;;;;;;4.60;65.11;96435.78;5998675;23;20594;-84
2022/01/05 09:31:19;;;;;;;4.93;2.15;;;;;;;4.63;64.72;96435.34;5999105;23;20336;-84
2022/01/05 09:33:44;;;;;;;6.25;1.77;;;;;;;4.28;64.77;96443.84;5998673;23;20347;-85
2022/01/05 09:36:18;;;;;;;6.28;2.08;;;;;;;4.32;64.26;96439.03;5975033;23;20151;-84
2022/01/05 09:44:10;;;;;;;11.98;2.97;;;;;;;3.96;64.90;96439.94;6032164;23;20162;-86
2022/01/05 09:46:58;;;;;;;9.60;2.75;;;;;;;4.13;64.94;96457.13;6031589;23;20373;-86
2022/01/05 09:49:31;;;;;;;6.80;2.05;;;;;;;4.01;65.08;96458.91;6022455;23;20645;-84
2022/01/05 09:52:00;;;;;;;7.63;1.90;;;;;;;3.86;64.88;96459.31;6031725;23;20248;-84
2022/01/05 09:54:26;;;;;;;5.50;1.95;;;;;;;3.77;64.67;96458.03;6026303;23;20236;-87
2022/01/05 09:56:52;;;;;;;7.43;2.78;;;;;;;3.88;64.22;96454.72;5998990;23;20613;-84
2022/01/05 09:59:18;;;;;;;6.07;2.10;;;;;;;4.04;65.07;96455.09;5998072;23;20365;-85
2022/01/05 10:01:43;;;;;;;11.95;2.30;;;;;;;3.83;64.75;96458.94;5993187;23;20286;-84
2022/01/05 10:04:09;;;;;;;10.65;3.30;;;;;;;3.57;64.91;96453.13;6034160;23;20237;-86
2022/01/05 10:06:37;;;;;;;6.72;2.58;;;;;;;3.87;65.47;96453.16;6022604;23;20185;-84
2022/01/05 10:09:04;;;;;;;7.38;3.17;;;;;;;4.14;64.60;96465.66;6000737;23;20612;-85
2022/01/05 10:11:29;;;;;;;9.77;2.83;;;;;;;4.01;64.49;96464.06;6033356;23;20582;-86
2022/01/05 10:13:55;;;;;;;8.23;1.83;;;;;;;3.85;63.99;96465.44;6034345;23;20139;-84
2022/01/05 10:16:20;;;;;;;5.53;2.72;;;;;;;4.10;63.56;96477.41;6023325;23;20083;-85
2022/01/05 10:18:46;;;;;;;11.65;2.67;;;;;;;4.20;63.03;96477.66;6033198;23;20157;-84
2022/01/05 10:21:14;;;;;;;9.10;1.83;;;;;;;4.19;63.51;96488.97;5999633;23;20342;-85
2022/01/05 10:23:46;;;;;;;5.28;1.67;;;;;;;3.96;62.04;96492.25;5999454;23;20401;-87
2022/01/05 10:26:27;;;;;;;7.20;2.45;;;;;;;3.26;62.03;96508.13;6001701;23;20181;-88
2022/01/05 10:28:58;;;;;;;6.95;1.85;;;;;;;3.56;62.72;96523.63;6023170;23;20233;-86
2022/01/05 10:31:34;;;;;;;5.35;2.25;;;;;;;3.46;60.53;96518.19;6000620;23;20171;-86
2022/01/05 10:34:13;;;;;;;6.35;1.58;;;;;;;3.62;62.34;96522.00;6000664;23;20388;-85
2022/01/05 10:36:44;;;;;;;6.85;1.48;;;;;;;3.48;61.54;96527.28;5995918;23;20186;-87
2022/01/05 10:39:09;;;;;;;2.97;1.20;;;;;;;3.71;61.05;96503.44;6009155;23;20197;-86
2022/01/05 10:41:37;;;;;;;4.78;1.58;;;;;;;3.66;61.40;96523.91;6035154;23;20178;-85
2022/01/05 10:44:06;;;;;;;5.35;1.80;;;;;;;3.30;60.06;96529.84;6000501;23;20692;-83
2022/01/05 10:46:36;;;;;;;5.43;1.38;;;;;;;3.50;62.99;96527.84;6024781;23;20246;-86
2022/01/05 10:49:04;;;;;;;3.88;1.58;;;;;;;3.58;60.43;96526.75;5976432;23;20438;-86
2022/01/05 10:51:31;;;;;;;5.43;1.52;;;;;;;3.59;59.57;96522.41;6000266;23;20265;-85
2022/01/05 10:54:16;;;;;;;3.47;1.33;;;;;;;3.62;60.27;96532.28;6028760;23;20193;-86
2022/01/05 10:56:42;;;;;;;7.40;1.25;;;;;;;3.74;59.03;96528.00;5998621;23;20201;-87
2022/01/05 10:59:08;;;;;;;5.13;1.27;;;;;;;3.63;59.16;96536.44;5985633;23;20623;-84
2022/01/05 11:01:34;;;;;;;3.95;1.75;;;;;;;3.86;59.42;96533.97;6033457;23;20255;-87
2022/01/05 11:04:17;;;;;;;9.35;1.80;;;;;;;3.77;59.19;96532.72;6010095;23;20372;-85
2022/01/05 11:07:03;;;;;;;3.15;1.40;;;;;;;3.58;57.96;96536.28;6001320;23;20087;-87
2022/01/05 11:09:30;;;;;;;4.13;1.38;;;;;;;3.54;58.08;96536.72;6000362;23;20254;-86
2022/01/05 11:11:55;;;;;;;6.65;1.65;;;;;;;3.64;58.46;96540.59;6033773;23;20581;-88
2022/01/05 11:14:30;;;;;;;5.20;1.25;;;;;;;3.93;59.27;96534.69;5998948;23;20324;-85
2022/01/05 11:16:58;;;;;;;7.32;1.30;;;;;;;4.19;57.80;96537.91;6057553;23;20217;-86
2022/01/05 11:19:29;;;;;;;6.78;2.53;;;;;;;4.22;58.88;96529.75;5975500;23;20193;-85
2022/01/05 11:21:59;;;;;;;3.85;1.08;;;;;;;4.18;59.58;96543.28;6000088;23;20603;-85
2022/01/05 11:24:26;;;;;;;7.32;1.63;;;;;;;4.20;58.75;96518.88;6033439;23;20207;-85
2022/01/05 11:26:51;;;;;;;5.93;1.73;;;;;;;4.26;61.34;96519.78;6032861;23;20252;-87
2022/01/05 11:29:18;;;;;;;4.68;1.60;;;;;;;4.47;59.65;96515.91;5998930;23;20534;-85
2022/01/05 11:31:45;;;;;;;4.43;1.13;;;;;;;4.68;58.84;96524.94;5998000;23;20261;-87
2022/01/05 11:34:11;;;;;;;5.13;1.40;;;;;;;4.53;60.13;96522.00;5998314;23;20324;-85
2022/01/05 11:36:38;;;;;;;7.72;2.20;;;;;;;4.44;59.02;96524.09;5999875;23;20467;-87
2022/01/05 11:39:04;;;;;;;4.93;1.40;;;;;;;4.62;59.12;96526.59;6033240;23;20208;-86
2022/01/05 11:41:29;;;;;;;4.53;1.40;;;;;;;4.65;59.29;96533.09;5976282;23;20212;-85
2022/01/05 11:43:55;;;;;;;6.22;1.60;;;;;;;4.17;58.20;96532.19;5975804;23;20597;-88
2022/01/05 11:46:21;;;;;;;5.47;1.60;;;;;;;4.20;58.16;96549.81;6000530;23;20189;-87